createdAt,value
2019-06-26T00:01:27.407Z,7.00
2019-06-26T00:03:55.919Z,7.87
2019-06-26T00:06:24.305Z,7.03
2019-06-26T00:08:52.798Z,7.80
2019-06-26T00:11:23.066Z,7.70
2019-06-26T00:13:51.455Z,7.25
2019-06-26T00:16:20.124Z,7.60
2019-06-26T00:18:48.541Z,7.17
2019-06-26T00:21:17.012Z,7.28
2019-06-26T00:23:45.413Z,7.50
2019-06-26T00:26:13.811Z,7.65
2019-06-26T00:28:42.226Z,7.90
2019-06-26T00:31:10.801Z,7.55
2019-06-26T00:33:39.197Z,7.47
2019-06-26T00:36:07.595Z,7.90
2019-06-26T00:38:35.980Z,7.37
2019-06-26T00:41:04.380Z,7.97
2019-06-26T00:43:41.989Z,8.05
2019-06-26T00:46:03.138Z,8.00
2019-06-26T00:48:31.545Z,8.25
2019-06-26T00:50:59.934Z,7.90
2019-06-26T00:53:28.381Z,8.48
2019-06-26T00:55:56.879Z,8.85
2019-06-26T00:58:25.335Z,8.20
2019-06-26T01:00:54.095Z,8.53
2019-06-26T01:03:22.481Z,8.55
2019-06-26T01:05:50.981Z,8.48
2019-06-26T01:08:19.386Z,8.35
2019-06-26T01:10:47.929Z,8.28
2019-06-26T01:13:16.350Z,8.20
2019-06-26T01:15:44.821Z,8.90
2019-06-26T01:18:13.287Z,8.40
2019-06-26T01:20:41.942Z,8.80
2019-06-26T01:23:10.405Z,8.13
2019-06-26T01:25:38.803Z,8.25
2019-06-26T01:28:07.262Z,8.68
2019-06-26T01:30:35.810Z,8.73
2019-06-26T01:33:04.276Z,8.65
2019-06-26T01:35:32.702Z,8.73
2019-06-26T01:38:01.132Z,8.10
2019-06-26T01:40:29.522Z,8.80
2019-06-26T01:42:57.987Z,8.70
2019-06-26T01:45:26.338Z,8.78
2019-06-26T01:47:54.734Z,8.68
2019-06-26T01:50:23.128Z,8.75
2019-06-26T01:52:51.699Z,8.80
2019-06-26T01:55:20.092Z,9.35
2019-06-26T01:57:48.653Z,8.50
2019-06-26T02:00:17.407Z,9.33
2019-06-26T02:02:45.847Z,8.95
2019-06-26T02:05:14.679Z,8.53
2019-06-26T02:07:43.065Z,9.15
2019-06-26T02:10:11.898Z,9.08
2019-06-26T02:12:40.522Z,8.20
2019-06-26T02:15:10.049Z,9.48
2019-06-26T02:17:38.445Z,9.63
2019-06-26T02:20:07.893Z,9.83
2019-06-26T02:22:36.310Z,10.08
2019-06-26T02:25:05.743Z,9.83
2019-06-26T02:27:34.223Z,9.35
2019-06-26T02:30:02.615Z,9.28
2019-06-26T02:32:31.025Z,9.90
2019-06-26T02:34:59.441Z,9.63
2019-06-26T02:37:27.836Z,9.55
2019-06-26T02:39:56.246Z,9.80
2019-06-26T02:42:24.648Z,9.00
2019-06-26T02:44:54.531Z,9.40
2019-06-26T02:47:23.186Z,9.23
2019-06-26T02:49:51.555Z,8.95
2019-06-26T02:52:20.015Z,9.13
2019-06-26T02:54:48.469Z,9.40
2019-06-26T02:57:17.002Z,9.23
2019-06-26T02:59:45.395Z,10.00
2019-06-26T03:02:13.803Z,10.05
2019-06-26T03:04:42.217Z,9.95
2019-06-26T03:07:10.635Z,9.85
2019-06-26T03:09:39.129Z,9.10
2019-06-26T03:12:07.536Z,9.73
2019-06-26T03:14:35.932Z,9.20
2019-06-26T03:17:04.525Z,9.05
2019-06-26T03:19:32.882Z,9.50
2019-06-26T03:22:01.295Z,9.55
2019-06-26T03:24:29.707Z,8.75
2019-06-26T03:28:34.776Z,9.73
2019-06-26T03:31:03.181Z,9.10
2019-06-26T03:33:31.611Z,10.08
2019-06-26T03:36:00.019Z,9.33
2019-06-26T03:38:28.540Z,9.55
2019-06-26T03:40:56.951Z,9.80
2019-06-26T03:43:25.370Z,9.63
2019-06-26T03:45:53.801Z,9.60
2019-06-26T03:48:22.315Z,9.30
2019-06-26T03:50:50.786Z,9.85
2019-06-26T03:53:19.210Z,9.65
2019-06-26T03:55:47.619Z,9.05
2019-06-26T03:58:16.013Z,9.83
2019-06-26T04:00:44.799Z,10.03
2019-06-26T04:03:13.203Z,10.00
2019-06-26T04:05:41.632Z,9.98
2019-06-26T04:08:10.043Z,10.08
2019-06-26T04:10:38.609Z,9.93
2019-06-26T04:13:07.235Z,9.95
2019-06-26T04:15:41.993Z,9.70
2019-06-26T04:18:05.882Z,9.78
2019-06-26T04:20:34.307Z,9.70
2019-06-26T04:23:02.736Z,9.63
2019-06-26T04:25:31.215Z,8.98
2019-06-26T04:27:59.618Z,9.38
2019-06-26T04:30:28.117Z,10.25
2019-06-26T04:32:56.606Z,10.20
2019-06-26T04:35:25.040Z,9.50
2019-06-26T04:37:53.458Z,10.60
2019-06-26T04:40:22.131Z,10.23
2019-06-26T04:42:50.600Z,10.30
2019-06-26T04:45:19.241Z,10.40
2019-06-26T04:47:48.669Z,10.45
2019-06-26T04:50:17.723Z,10.58
2019-06-26T04:52:46.180Z,10.28
2019-06-26T04:55:15.536Z,10.13
2019-06-26T04:57:44.037Z,10.85
2019-06-26T05:00:13.694Z,10.88
2019-06-26T05:02:42.110Z,10.23
2019-06-26T05:05:11.074Z,10.03
2019-06-26T05:07:41.004Z,10.72
2019-06-26T05:10:10.859Z,10.65
2019-06-26T05:12:39.302Z,11.08
2019-06-26T05:15:08.950Z,11.43
2019-06-26T05:17:37.475Z,10.75
2019-06-26T05:20:11.093Z,10.88
2019-06-26T05:22:39.606Z,11.05
2019-06-26T05:25:08.458Z,11.60
2019-06-26T05:27:37.042Z,11.75
2019-06-26T05:30:10.129Z,10.55
2019-06-26T05:32:38.740Z,11.33
2019-06-26T05:35:08.278Z,11.75
2019-06-26T05:37:36.777Z,10.55
2019-06-26T05:40:12.594Z,10.98
2019-06-26T05:42:41.098Z,11.05
2019-06-26T05:45:10.342Z,11.55
2019-06-26T05:47:38.934Z,11.75
2019-06-26T05:50:09.726Z,11.03
2019-06-26T05:52:41.990Z,11.73
2019-06-26T05:55:08.954Z,12.25
2019-06-26T05:57:37.446Z,11.88
2019-06-26T06:00:10.845Z,11.63
2019-06-26T06:02:39.338Z,12.20
2019-06-26T06:05:08.962Z,12.43
2019-06-26T06:07:37.451Z,11.80
2019-06-26T06:10:07.005Z,12.23
2019-06-26T06:12:35.411Z,12.20
2019-06-26T06:15:06.108Z,11.95
2019-06-26T06:17:34.508Z,11.10
2019-06-26T06:20:03.505Z,12.25
2019-06-26T06:22:31.899Z,11.93
2019-06-26T06:25:00.330Z,11.35
2019-06-26T06:27:28.738Z,11.63
2019-06-26T06:29:57.225Z,11.55
2019-06-26T06:32:25.636Z,11.97
2019-06-26T06:34:54.069Z,11.03
2019-06-26T06:37:22.506Z,12.90
2019-06-26T06:39:50.929Z,12.55
2019-06-26T06:42:19.414Z,12.95
2019-06-26T06:44:47.878Z,13.50
2019-06-26T06:47:16.300Z,13.88
2019-06-26T06:49:44.738Z,14.13
2019-06-26T06:52:16.495Z,13.43
2019-06-26T06:54:43.307Z,13.62
2019-06-26T06:57:11.719Z,12.58
2019-06-26T06:59:40.151Z,12.85
2019-06-26T07:02:08.562Z,13.15
2019-06-26T07:04:36.995Z,12.43
2019-06-26T07:07:08.677Z,12.65
2019-06-26T07:09:37.088Z,12.90
2019-06-26T07:12:05.512Z,12.58
2019-06-26T07:14:33.928Z,11.65
2019-06-26T07:17:02.332Z,12.10
2019-06-26T07:19:30.741Z,11.90
2019-06-26T07:21:59.152Z,13.22
2019-06-26T07:24:27.571Z,14.07
2019-06-26T07:26:55.996Z,13.08
2019-06-26T07:29:25.551Z,15.10
2019-06-26T07:31:54.039Z,14.53
2019-06-26T07:34:22.628Z,13.13
2019-06-26T07:36:51.054Z,12.43
2019-06-26T07:39:19.526Z,12.63
2019-06-26T07:41:47.952Z,13.28
2019-06-26T07:44:16.423Z,12.23
2019-06-26T07:46:44.838Z,12.63
2019-06-26T07:49:13.266Z,11.25
2019-06-26T07:51:41.731Z,11.80
2019-06-26T07:54:10.116Z,11.40
2019-06-26T07:56:38.552Z,10.80
2019-06-26T07:59:06.967Z,11.12
2019-06-26T08:01:35.433Z,11.00
2019-06-26T08:04:03.906Z,11.22
2019-06-26T08:06:32.349Z,11.15
2019-06-26T08:09:00.822Z,10.05
2019-06-26T08:11:29.247Z,10.80
2019-06-26T08:13:57.679Z,11.10
2019-06-26T08:16:26.088Z,11.18
2019-06-26T08:18:54.500Z,10.40
2019-06-26T08:21:22.903Z,10.40
2019-06-26T08:23:51.314Z,10.10
2019-06-26T08:26:19.751Z,9.65
2019-06-26T08:28:48.169Z,9.98
2019-06-26T08:31:16.582Z,10.48
2019-06-26T08:33:45.074Z,10.85
2019-06-26T08:36:13.558Z,9.90
2019-06-26T08:38:41.964Z,9.25
2019-06-26T08:41:10.385Z,9.13
2019-06-26T08:43:38.845Z,9.68
2019-06-26T08:46:07.316Z,9.60
2019-06-26T08:48:39.957Z,8.68
2019-06-26T08:51:05.829Z,8.95
2019-06-26T08:53:34.409Z,8.68
2019-06-26T08:56:03.082Z,8.83
2019-06-26T08:58:31.568Z,7.92
2019-06-26T09:00:59.966Z,6.80
2019-06-26T09:03:28.371Z,7.20
2019-06-26T09:05:56.781Z,7.42
2019-06-26T09:08:25.318Z,7.75
2019-06-26T09:10:53.865Z,7.80
2019-06-26T09:13:22.273Z,7.70
2019-06-26T09:15:50.679Z,7.10
2019-06-26T09:18:34.347Z,7.40
2019-06-26T09:20:49.247Z,7.67
2019-06-26T09:23:17.662Z,7.37
2019-06-26T09:25:46.073Z,7.55
2019-06-26T09:28:14.483Z,7.87
2019-06-26T09:30:42.866Z,8.10
2019-06-26T09:33:11.297Z,7.87
2019-06-26T09:35:39.704Z,7.90
2019-06-26T09:38:08.106Z,7.90
2019-06-26T09:40:36.556Z,8.43
2019-06-26T09:43:04.989Z,7.17
2019-06-26T09:45:33.474Z,7.72
2019-06-26T09:48:01.969Z,7.95
2019-06-26T09:50:30.380Z,7.75
2019-06-26T09:52:58.774Z,7.95
2019-06-26T09:55:27.176Z,7.97
2019-06-26T09:57:55.579Z,7.60
2019-06-26T10:00:24.440Z,7.12
2019-06-26T10:02:52.853Z,7.62
2019-06-26T10:05:21.427Z,7.60
2019-06-26T10:07:50.017Z,7.70
2019-06-26T10:10:18.795Z,7.03
2019-06-26T10:12:47.193Z,7.60
2019-06-26T10:15:15.739Z,7.37
2019-06-26T10:17:44.193Z,7.55
2019-06-26T10:20:14.105Z,7.05
2019-06-26T10:22:42.510Z,6.83
2019-06-26T10:25:11.828Z,7.10
2019-06-26T10:27:40.668Z,7.17
2019-06-26T10:30:10.035Z,6.42
2019-06-26T10:32:38.525Z,6.83
2019-06-26T10:35:07.077Z,7.40
2019-06-26T10:37:35.551Z,5.90
2019-06-26T10:40:04.702Z,6.55
2019-06-26T10:42:33.113Z,7.03
2019-06-26T10:45:01.662Z,6.25
2019-06-26T10:47:30.113Z,5.72
2019-06-26T10:49:58.494Z,5.97
2019-06-26T10:52:26.914Z,6.30
2019-06-26T10:54:55.329Z,5.87
2019-06-26T10:57:23.793Z,5.67
2019-06-26T10:59:55.501Z,5.67
2019-06-26T11:02:22.446Z,5.35
2019-06-26T11:04:50.836Z,6.62
2019-06-26T11:07:19.260Z,6.53
2019-06-26T11:09:47.686Z,6.35
2019-06-26T11:12:16.128Z,6.65
2019-06-26T11:14:44.514Z,6.10
2019-06-26T11:17:12.927Z,6.55
2019-06-26T11:19:44.323Z,6.15
2019-06-26T11:22:11.521Z,5.90
2019-06-26T11:24:40.038Z,6.12
2019-06-26T11:27:08.534Z,6.15
2019-06-26T11:29:36.904Z,6.42
2019-06-26T11:32:09.148Z,6.22
2019-06-26T11:34:35.528Z,6.17
2019-06-26T11:37:04.704Z,6.20
2019-06-26T11:39:33.318Z,6.00
2019-06-26T11:42:01.784Z,5.90
2019-06-26T11:44:30.331Z,6.05
2019-06-26T11:46:58.878Z,5.97
2019-06-26T11:49:27.296Z,6.12
2019-06-26T11:51:55.743Z,5.90
2019-06-26T11:54:24.158Z,5.87
2019-06-26T11:56:52.586Z,7.58
2019-06-26T11:59:21.034Z,6.15
2019-06-26T12:01:49.492Z,5.92
2019-06-26T12:04:17.991Z,6.47
2019-06-26T12:06:46.507Z,5.95
2019-06-26T12:09:15.064Z,5.85
2019-06-26T12:11:43.439Z,6.30
2019-06-26T12:14:11.930Z,6.20
2019-06-26T12:16:40.369Z,6.05
2019-06-26T12:19:08.799Z,5.72
2019-06-26T12:21:37.207Z,5.37
2019-06-26T12:24:05.622Z,5.60
2019-06-26T12:26:34.017Z,5.70
2019-06-26T12:29:02.456Z,5.10
2019-06-26T12:31:31.171Z,5.85
2019-06-26T12:33:59.627Z,5.65
2019-06-26T12:36:28.010Z,5.72
2019-06-26T12:38:56.520Z,6.00
2019-06-26T12:41:25.070Z,5.37
2019-06-26T12:43:53.467Z,5.42
2019-06-26T12:46:21.882Z,5.75
2019-06-26T12:48:50.283Z,5.17
2019-06-26T12:51:18.687Z,4.85
2019-06-26T12:53:47.106Z,4.80
2019-06-26T12:56:15.575Z,5.22
2019-06-26T12:58:43.988Z,4.92
2019-06-26T13:01:12.396Z,4.37
2019-06-26T13:03:40.807Z,5.08
2019-06-26T13:06:09.238Z,5.67
2019-06-26T13:08:37.678Z,4.92
2019-06-26T13:11:06.153Z,5.12
2019-06-26T13:13:34.698Z,5.45
2019-06-26T13:16:03.126Z,5.30
2019-06-26T13:18:31.601Z,5.50
2019-06-26T13:21:00.212Z,5.70
2019-06-26T13:23:28.624Z,5.20
2019-06-26T13:25:57.030Z,5.50
2019-06-26T13:28:25.436Z,5.25
2019-06-26T13:30:53.941Z,5.00
2019-06-26T13:33:22.420Z,5.50
2019-06-26T13:35:50.883Z,5.78
2019-06-26T13:38:19.358Z,6.03
2019-06-26T13:40:47.776Z,5.42
2019-06-26T13:43:16.183Z,5.17
2019-06-26T13:45:44.683Z,5.72
2019-06-26T13:48:13.151Z,5.03
2019-06-26T13:50:41.567Z,5.85
2019-06-26T13:53:09.978Z,5.40
2019-06-26T13:55:38.469Z,5.15
2019-06-26T13:58:06.961Z,5.10
2019-06-26T14:00:35.369Z,5.72
2019-06-26T14:03:03.839Z,5.20
2019-06-26T14:05:32.393Z,4.90
2019-06-26T14:08:00.793Z,5.40
2019-06-26T14:10:29.223Z,5.30
2019-06-26T14:12:57.797Z,5.17
2019-06-26T14:15:26.256Z,5.03
2019-06-26T14:17:54.662Z,5.03
2019-06-26T14:20:23.187Z,5.20
2019-06-26T14:22:51.655Z,5.05
2019-06-26T14:25:20.057Z,5.33
2019-06-26T14:27:48.538Z,5.30
2019-06-26T14:30:17.395Z,5.45
2019-06-26T14:32:45.838Z,4.97
2019-06-26T14:35:14.252Z,5.22
2019-06-26T14:37:42.693Z,4.97
2019-06-26T14:40:12.237Z,5.25
2019-06-26T14:42:40.785Z,5.28
2019-06-26T14:45:09.630Z,5.08
2019-06-26T14:47:38.085Z,5.12
2019-06-26T14:50:07.526Z,5.05
2019-06-26T14:52:36.013Z,4.65
2019-06-26T14:55:08.272Z,5.28
2019-06-26T14:57:36.760Z,5.00
2019-06-26T15:00:09.101Z,5.33
2019-06-26T15:02:37.522Z,5.47
2019-06-26T15:05:07.599Z,5.72
2019-06-26T15:07:36.041Z,5.85
2019-06-26T15:10:06.996Z,5.42
2019-06-26T15:12:35.496Z,5.28
2019-06-26T15:15:04.392Z,5.50
2019-06-26T15:17:32.872Z,5.72
2019-06-26T15:20:01.294Z,5.25
2019-06-26T15:22:29.696Z,5.15
2019-06-26T15:24:58.111Z,5.53
2019-06-26T15:27:26.537Z,6.08
2019-06-26T15:29:54.932Z,5.72
2019-06-26T15:32:23.395Z,5.15
2019-06-26T15:34:51.868Z,5.45
2019-06-26T15:37:20.316Z,5.72
2019-06-26T15:39:48.707Z,5.25
2019-06-26T15:42:17.173Z,5.85
2019-06-26T15:44:45.640Z,5.85
2019-06-26T15:47:14.044Z,5.80
2019-06-26T15:49:42.532Z,5.97
2019-06-26T15:52:15.410Z,6.55
2019-06-26T15:54:41.165Z,6.05
2019-06-26T15:57:09.663Z,6.05
2019-06-26T15:59:38.077Z,6.65
2019-06-26T16:02:06.495Z,5.97
2019-06-26T16:04:35.292Z,6.22
2019-06-26T16:07:03.967Z,6.62
2019-06-26T16:09:32.409Z,5.45
2019-06-26T16:12:00.865Z,6.25
2019-06-26T16:14:29.240Z,6.33
2019-06-26T16:16:59.358Z,6.40
2019-06-26T16:19:27.772Z,6.08
2019-06-26T16:21:56.193Z,5.87
2019-06-26T16:24:24.654Z,6.30
2019-06-26T16:26:53.026Z,6.78
2019-06-26T16:29:21.431Z,6.78
2019-06-26T16:31:49.856Z,8.10
2019-06-26T16:34:18.400Z,6.78
2019-06-26T16:36:46.878Z,6.72
2019-06-26T16:39:15.390Z,6.55
2019-06-26T16:41:43.922Z,7.05
2019-06-26T16:44:12.321Z,6.70
2019-06-26T16:46:40.818Z,7.10
2019-06-26T16:49:09.178Z,7.15
2019-06-26T16:51:37.612Z,6.62
2019-06-26T16:54:06.005Z,6.92
2019-06-26T16:56:34.400Z,6.53
2019-06-26T16:59:02.879Z,6.78
2019-06-26T17:01:31.295Z,7.10
2019-06-26T17:03:59.699Z,6.97
2019-06-26T17:06:28.169Z,6.75
2019-06-26T17:08:56.637Z,7.03
2019-06-26T17:11:25.296Z,7.30
2019-06-26T17:13:54.006Z,7.40
2019-06-26T17:16:22.480Z,7.05
2019-06-26T17:18:50.893Z,7.00
2019-06-26T17:21:19.351Z,6.75
2019-06-26T17:23:47.862Z,7.28
2019-06-26T17:26:16.301Z,7.33
2019-06-26T17:28:44.694Z,7.08
2019-06-26T17:31:13.112Z,7.35
2019-06-26T17:33:41.563Z,7.25
2019-06-26T17:36:09.935Z,7.20
2019-06-26T17:38:38.435Z,7.53
2019-06-26T17:41:06.870Z,6.47
2019-06-26T17:43:35.359Z,7.37
2019-06-26T17:46:03.838Z,7.05
2019-06-26T17:48:32.421Z,8.73
2019-06-26T17:51:00.914Z,8.38
2019-06-26T17:53:29.350Z,8.20
2019-06-26T17:55:57.800Z,8.20
2019-06-26T17:58:26.279Z,8.80
2019-06-26T18:00:54.713Z,8.45
2019-06-26T18:03:23.178Z,8.18
2019-06-26T18:05:51.569Z,7.85
2019-06-26T18:08:20.066Z,7.80
2019-06-26T18:10:48.537Z,7.53
2019-06-26T18:13:16.982Z,7.75
2019-06-26T18:15:45.379Z,8.05
2019-06-26T18:18:13.855Z,7.15
2019-06-26T18:20:42.389Z,7.30
2019-06-26T18:23:10.848Z,8.18
2019-06-26T18:25:39.266Z,8.15
2019-06-26T18:28:07.716Z,7.87
2019-06-26T18:30:36.275Z,7.70
2019-06-26T18:33:04.737Z,7.28
2019-06-26T18:35:33.131Z,7.72
2019-06-26T18:38:01.840Z,8.38
2019-06-26T18:40:30.334Z,8.30
2019-06-26T18:42:58.760Z,8.13
2019-06-26T18:45:27.253Z,8.45
2019-06-26T18:47:55.749Z,7.95
2019-06-26T18:50:24.157Z,8.85
2019-06-26T18:52:52.624Z,9.13
2019-06-26T18:55:21.060Z,9.80
2019-06-26T18:57:49.552Z,8.83
2019-06-26T19:00:18.732Z,8.73
2019-06-26T19:02:47.342Z,8.85
2019-06-26T19:05:15.982Z,8.95
2019-06-26T19:07:44.389Z,9.28
2019-06-26T19:10:14.066Z,9.20
2019-06-26T19:12:42.612Z,8.93
2019-06-26T19:15:11.612Z,9.15
2019-06-26T19:17:42.454Z,9.53
2019-06-26T19:20:10.913Z,8.90
2019-06-26T19:22:39.443Z,8.68
2019-06-26T19:25:08.319Z,9.43
2019-06-26T19:27:36.895Z,9.08
2019-06-26T19:30:08.899Z,8.90
2019-06-26T19:32:37.711Z,8.88
2019-06-26T19:35:18.111Z,8.85
2019-06-26T19:37:37.201Z,8.48
2019-06-26T19:40:09.208Z,8.78
2019-06-26T19:42:37.830Z,9.18
2019-06-26T19:45:08.579Z,8.38
2019-06-26T19:47:36.994Z,8.93
2019-06-26T19:50:09.365Z,8.98
2019-06-26T19:52:37.894Z,9.70
2019-06-26T19:55:06.476Z,8.95
2019-06-26T19:57:34.905Z,9.05
2019-06-26T20:03:37.985Z,9.20
2019-06-26T20:06:06.516Z,9.68
2019-06-26T20:08:34.929Z,9.80
2019-06-26T20:11:03.363Z,9.25
2019-06-26T20:13:32.031Z,9.38
2019-06-26T20:16:00.487Z,10.30
2019-06-26T20:18:28.929Z,9.80
2019-06-26T20:20:57.414Z,9.60
2019-06-26T20:23:25.839Z,9.65
2019-06-26T20:25:54.261Z,9.78
2019-06-26T20:28:22.827Z,10.60
2019-06-26T20:30:51.301Z,10.40
2019-06-26T20:33:19.963Z,10.70
2019-06-26T20:35:48.425Z,10.40
2019-06-26T20:38:16.835Z,10.48
2019-06-26T20:40:46.208Z,10.30
2019-06-26T20:43:14.785Z,9.78
2019-06-26T20:45:43.230Z,9.95
2019-06-26T20:48:11.642Z,10.25
2019-06-26T20:50:40.079Z,10.45
2019-06-26T20:53:08.503Z,11.05
2019-06-26T20:55:36.962Z,10.40
2019-06-26T20:58:05.364Z,10.05
2019-06-26T21:00:33.794Z,10.98
2019-06-26T21:03:02.483Z,11.43
2019-06-26T21:05:30.987Z,11.45
2019-06-26T21:07:59.453Z,11.10
2019-06-26T21:10:27.995Z,11.33
2019-06-26T21:12:56.481Z,11.12
2019-06-26T21:15:24.899Z,11.10
2019-06-26T21:17:53.332Z,11.57
2019-06-26T21:20:21.759Z,10.72
2019-06-26T21:22:50.179Z,11.53
2019-06-26T21:25:19.860Z,11.43
2019-06-26T21:27:48.514Z,12.15
2019-06-26T21:30:17.260Z,12.33
2019-06-26T21:32:45.673Z,12.65
2019-06-26T21:35:14.085Z,11.75
2019-06-26T21:37:44.060Z,11.22
2019-06-26T21:40:12.772Z,11.90
2019-06-26T21:42:41.330Z,11.83
2019-06-26T21:45:10.105Z,12.23
2019-06-26T21:47:38.602Z,12.28
2019-06-26T21:50:07.362Z,12.07
2019-06-26T21:52:37.361Z,11.83
2019-06-26T21:55:06.947Z,11.93
2019-06-26T21:57:35.505Z,12.23
2019-06-26T22:00:08.610Z,11.63
2019-06-26T22:02:37.115Z,11.33
2019-06-26T22:05:08.235Z,12.20
2019-06-26T22:07:38.456Z,12.03
2019-06-26T22:10:07.739Z,12.20
2019-06-26T22:12:36.233Z,11.90
2019-06-26T22:15:05.592Z,11.55
2019-06-26T22:17:34.028Z,12.33
2019-06-26T22:20:02.522Z,12.03
2019-06-26T22:22:31.042Z,11.15
2019-06-26T22:24:59.536Z,11.50
2019-06-26T22:27:28.012Z,11.53
2019-06-26T22:29:58.131Z,11.90
2019-06-26T22:32:28.723Z,11.85
2019-06-26T22:34:57.461Z,11.85
2019-06-26T22:37:25.879Z,12.15
2019-06-26T22:39:56.569Z,12.15
2019-06-26T22:42:25.071Z,11.60
2019-06-26T22:44:53.530Z,11.80
2019-06-26T22:47:22.696Z,12.98
2019-06-26T22:49:52.813Z,12.75
2019-06-26T22:52:21.255Z,12.33
2019-06-26T22:54:51.829Z,12.33
2019-06-26T22:57:20.415Z,12.47
2019-06-26T22:59:50.511Z,12.50
2019-06-26T23:02:19.885Z,12.20
2019-06-26T23:04:48.595Z,12.98
2019-06-26T23:07:17.061Z,12.90
2019-06-26T23:09:45.594Z,12.53
2019-06-26T23:12:14.080Z,12.58
2019-06-26T23:14:42.678Z,12.13
2019-06-26T23:17:11.402Z,12.30
2019-06-26T23:19:39.827Z,12.85
2019-06-26T23:22:08.268Z,12.68
2019-06-26T23:24:36.682Z,12.85
2019-06-26T23:27:05.372Z,13.43
2019-06-26T23:29:33.950Z,12.23
2019-06-26T23:32:03.516Z,13.75
2019-06-26T23:34:32.037Z,12.60
2019-06-26T23:37:00.464Z,13.83
2019-06-26T23:39:28.911Z,12.35
2019-06-26T23:41:57.341Z,13.10
2019-06-26T23:44:25.824Z,13.10
2019-06-26T23:46:54.230Z,12.20
2019-06-26T23:49:22.639Z,13.08
2019-06-26T23:51:51.063Z,13.00
2019-06-26T23:54:19.484Z,12.88
2019-06-26T23:56:47.910Z,13.05
2019-06-26T23:59:16.416Z,13.32
